createdAt,value
2022-11-17T00:00:58.424Z,4.2
2022-11-17T00:02:01.929Z,4.2
2022-11-17T00:03:05.012Z,4.2
2022-11-17T00:04:08.466Z,4.2
2022-11-17T00:05:11.906Z,4.2
2022-11-17T00:06:15.148Z,4.3
2022-11-17T00:07:18.549Z,4.3
2022-11-17T00:08:21.427Z,4.2
2022-11-17T00:09:24.070Z,4.2
2022-11-17T00:10:26.819Z,4.2
2022-11-17T00:11:31.083Z,4.3
2022-11-17T00:12:34.966Z,4.3
2022-11-17T00:13:38.945Z,4.2
2022-11-17T00:14:41.274Z,4.2
2022-11-17T00:15:44.058Z,4.2
2022-11-17T00:16:46.878Z,4.2
2022-11-17T00:17:50.015Z,4.3
2022-11-17T00:18:52.848Z,4.3
2022-11-17T00:19:56.048Z,4.3
2022-11-17T00:20:58.954Z,4.2
2022-11-17T00:22:01.840Z,4.3
2022-11-17T00:23:04.916Z,4.3
2022-11-17T00:24:08.087Z,4.3
2022-11-17T00:25:11.242Z,4.3
2022-11-17T00:26:14.550Z,4.3
2022-11-17T00:27:18.526Z,4.3
2022-11-17T00:28:22.176Z,4.2
2022-11-17T00:29:25.277Z,4.2
2022-11-17T00:30:27.878Z,4.2
2022-11-17T00:31:30.965Z,4.3
2022-11-17T00:32:33.768Z,4.2
2022-11-17T00:33:38.734Z,4.2
2022-11-17T00:34:41.816Z,4.2
2022-11-17T00:35:45.622Z,4.3
2022-11-17T00:36:48.965Z,4.2
2022-11-17T00:37:51.703Z,4.2
2022-11-17T00:38:54.871Z,4.2
2022-11-17T00:40:02.440Z,4.2
2022-11-17T00:41:05.547Z,4.2
2022-11-17T00:42:08.684Z,4.2
2022-11-17T00:43:12.818Z,4.2
2022-11-17T00:44:16.495Z,4.2
2022-11-17T00:45:19.910Z,4.2
2022-11-17T00:46:22.434Z,4.2
2022-11-17T00:47:25.417Z,4.2
2022-11-17T00:48:27.944Z,4.2
2022-11-17T00:49:31.010Z,4.2
2022-11-17T00:50:33.609Z,4.2
2022-11-17T00:51:36.410Z,4.2
2022-11-17T00:52:39.406Z,4.2
2022-11-17T00:53:42.293Z,4.2
2022-11-17T00:54:45.295Z,4.2
2022-11-17T00:55:48.457Z,4.1
2022-11-17T00:56:51.426Z,4.2
2022-11-17T00:57:54.940Z,4.2
2022-11-17T00:58:59.387Z,4.2
2022-11-17T01:00:02.599Z,4.2
2022-11-17T01:01:06.697Z,4.2
2022-11-17T01:02:10.529Z,4.2
2022-11-17T01:03:13.052Z,4.2
2022-11-17T01:04:15.843Z,4.2
2022-11-17T01:05:18.658Z,4.2
2022-11-17T01:06:21.484Z,4.2
2022-11-17T01:07:25.062Z,4.1
2022-11-17T01:08:28.155Z,4.1
2022-11-17T01:09:30.956Z,4.2
2022-11-17T01:10:34.028Z,4.1
2022-11-17T01:11:36.555Z,4.1
2022-11-17T01:12:39.363Z,4.2
2022-11-17T01:13:42.322Z,4.2
2022-11-17T01:14:46.522Z,4.1
2022-11-17T01:15:49.113Z,4.1
2022-11-17T01:16:52.845Z,4
2022-11-17T01:17:55.387Z,4
2022-11-17T01:18:58.395Z,3.9
2022-11-17T01:20:01.531Z,4
2022-11-17T01:21:04.698Z,4
2022-11-17T01:22:07.198Z,3.9
2022-11-17T01:23:09.389Z,4
2022-11-17T01:24:12.796Z,4
2022-11-17T01:25:15.319Z,4
2022-11-17T01:26:18.119Z,4
2022-11-17T01:27:21.552Z,4
2022-11-17T01:28:23.801Z,4
2022-11-17T01:29:27.377Z,4
2022-11-17T01:30:31.172Z,4
2022-11-17T01:31:34.112Z,3.9
2022-11-17T01:32:37.177Z,4
2022-11-17T01:33:39.973Z,4
2022-11-17T01:34:43.426Z,3.9
2022-11-17T01:35:46.409Z,4
2022-11-17T01:36:49.480Z,4
2022-11-17T01:37:52.261Z,4
2022-11-17T01:38:55.127Z,4
2022-11-17T01:39:58.463Z,4
2022-11-17T01:41:01.907Z,4
2022-11-17T01:42:05.147Z,3.9
2022-11-17T01:43:08.026Z,3.9
2022-11-17T01:44:10.865Z,3.9
2022-11-17T01:45:14.652Z,3.9
2022-11-17T01:46:18.797Z,3.9
2022-11-17T01:47:22.166Z,3.9
2022-11-17T01:48:24.592Z,3.9
2022-11-17T01:49:27.402Z,3.9
2022-11-17T01:50:30.197Z,3.9
2022-11-17T01:51:32.993Z,3.9
2022-11-17T01:52:36.055Z,3.9
2022-11-17T01:53:39.495Z,3.9
2022-11-17T01:54:42.293Z,3.9
2022-11-17T01:55:44.882Z,3.9
2022-11-17T01:56:48.287Z,3.9
2022-11-17T01:57:51.069Z,4
2022-11-17T01:58:53.796Z,4
2022-11-17T01:59:56.589Z,4
2022-11-17T02:00:59.899Z,3.9
2022-11-17T02:02:04.376Z,3.9
2022-11-17T02:03:07.876Z,4
2022-11-17T02:04:10.764Z,4
2022-11-17T02:05:13.509Z,3.9
2022-11-17T02:06:17.021Z,3.9
2022-11-17T02:07:20.493Z,3.9
2022-11-17T02:08:23.738Z,4
2022-11-17T02:09:26.736Z,4
2022-11-17T02:10:29.554Z,4
2022-11-17T02:11:32.646Z,4
2022-11-17T02:12:35.648Z,3.9
2022-11-17T02:13:39.051Z,3.9
2022-11-17T02:14:42.128Z,3.9
2022-11-17T02:15:44.648Z,3.9
2022-11-17T02:16:47.861Z,3.9
2022-11-17T02:17:52.749Z,3.9
2022-11-17T02:18:56.293Z,3.9
2022-11-17T02:19:58.998Z,3.9
2022-11-17T02:21:01.878Z,4
2022-11-17T02:22:04.749Z,4
2022-11-17T02:23:07.562Z,4
2022-11-17T02:24:11.005Z,4
2022-11-17T02:25:14.171Z,4
2022-11-17T02:26:17.066Z,3.9
2022-11-17T02:27:19.228Z,4
2022-11-17T02:28:22.313Z,4
2022-11-17T02:29:25.104Z,3.9
2022-11-17T02:30:27.825Z,3.9
2022-11-17T02:31:30.381Z,4
2022-11-17T02:32:32.941Z,4
2022-11-17T02:33:39.035Z,4
2022-11-17T02:34:42.580Z,4
2022-11-17T02:35:46.315Z,4
2022-11-17T02:36:48.831Z,4
2022-11-17T02:37:51.969Z,4
2022-11-17T02:38:54.693Z,4
2022-11-17T02:39:57.123Z,4.1
2022-11-17T02:40:59.640Z,4.1
2022-11-17T02:42:02.147Z,4.1
2022-11-17T02:43:05.059Z,4.1
2022-11-17T02:44:07.506Z,4.1
2022-11-17T02:45:10.929Z,4.1
2022-11-17T02:46:13.644Z,4.1
2022-11-17T02:47:15.596Z,4.1
2022-11-17T02:48:19.040Z,4
2022-11-17T02:49:23.182Z,4
2022-11-17T02:50:30.401Z,4
2022-11-17T02:51:33.865Z,4
2022-11-17T02:52:36.931Z,4.1
2022-11-17T02:53:40.747Z,4
2022-11-17T02:54:44.172Z,3.9
2022-11-17T02:55:47.034Z,4
2022-11-17T02:56:49.636Z,3.9
2022-11-17T02:57:52.250Z,3.9
2022-11-17T02:58:55.602Z,3.9
2022-11-17T02:59:59.158Z,3.9
2022-11-17T03:01:02.280Z,3.9
2022-11-17T03:02:05.316Z,3.9
2022-11-17T03:03:08.867Z,3.9
2022-11-17T03:04:12.178Z,3.9
2022-11-17T03:05:16.519Z,3.9
2022-11-17T03:06:19.559Z,3.9
2022-11-17T03:07:22.439Z,3.9
2022-11-17T03:08:34.442Z,3.8
2022-11-17T03:09:37.518Z,3.8
2022-11-17T03:10:40.306Z,3.8
2022-11-17T03:11:43.405Z,3.8
2022-11-17T03:12:46.316Z,3.9
2022-11-17T03:13:49.140Z,3.8
2022-11-17T03:14:51.670Z,3.8
2022-11-17T03:15:54.112Z,3.8
2022-11-17T03:16:56.631Z,3.8
2022-11-17T03:17:59.334Z,3.8
2022-11-17T03:19:02.152Z,3.7
2022-11-17T03:20:05.908Z,3.7
2022-11-17T03:21:10.169Z,3.7
2022-11-17T03:22:13.076Z,3.6
2022-11-17T03:23:16.377Z,3.7
2022-11-17T03:24:19.188Z,3.6
2022-11-17T03:25:22.074Z,3.6
2022-11-17T03:26:24.603Z,3.7
2022-11-17T03:27:28.061Z,3.6
2022-11-17T03:28:30.861Z,3.7
2022-11-17T03:29:34.394Z,3.6
2022-11-17T03:30:39.308Z,3.7
2022-11-17T03:31:42.425Z,3.7
2022-11-17T03:32:45.056Z,3.7
2022-11-17T03:33:48.193Z,3.6
2022-11-17T03:34:50.931Z,3.6
2022-11-17T03:35:53.843Z,3.6
2022-11-17T03:36:57.924Z,3.6
2022-11-17T03:38:00.851Z,3.6
2022-11-17T03:39:03.853Z,3.6
2022-11-17T03:40:06.637Z,3.5
2022-11-17T03:41:10.340Z,3.6
2022-11-17T03:42:13.706Z,3.5
2022-11-17T03:43:16.595Z,3.5
2022-11-17T03:44:19.144Z,3.5
2022-11-17T03:45:22.229Z,3.5
2022-11-17T03:46:24.449Z,3.5
2022-11-17T03:47:27.248Z,3.5
2022-11-17T03:48:30.116Z,3.5
2022-11-17T03:49:33.186Z,3.5
2022-11-17T03:50:36.457Z,3.5
2022-11-17T03:51:39.897Z,3.5
2022-11-17T03:52:43.948Z,3.6
2022-11-17T03:53:47.142Z,3.5
2022-11-17T03:54:49.308Z,3.5
2022-11-17T03:55:51.791Z,3.5
2022-11-17T03:56:55.447Z,3.5
2022-11-17T03:57:58.514Z,3.5
2022-11-17T03:59:01.621Z,3.5
2022-11-17T04:00:04.820Z,3.5
2022-11-17T04:01:07.979Z,3.5
2022-11-17T04:02:11.450Z,3.5
2022-11-17T04:03:14.779Z,3.5
2022-11-17T04:04:17.449Z,3.6
2022-11-17T04:05:20.282Z,3.6
2022-11-17T04:06:22.789Z,3.5
2022-11-17T04:07:26.982Z,3.5
2022-11-17T04:08:30.985Z,3.5
2022-11-17T04:09:34.552Z,3.5
2022-11-17T04:10:37.650Z,3.5
2022-11-17T04:11:40.425Z,3.6
2022-11-17T04:12:43.414Z,3.6
2022-11-17T04:13:46.395Z,3.6
2022-11-17T04:14:49.703Z,3.5
2022-11-17T04:15:53.157Z,3.5
2022-11-17T04:16:55.390Z,3.5
2022-11-17T04:17:58.391Z,3.5
2022-11-17T04:19:00.993Z,3.5
2022-11-17T04:20:03.862Z,3.5
2022-11-17T04:21:06.381Z,3.5
2022-11-17T04:22:09.514Z,3.5
2022-11-17T04:23:12.966Z,3.6
2022-11-17T04:24:17.373Z,3.6
2022-11-17T04:25:20.748Z,3.5
2022-11-17T04:26:22.917Z,3.5
2022-11-17T04:27:26.348Z,3.6
2022-11-17T04:28:29.630Z,3.6
2022-11-17T04:29:32.162Z,3.5
2022-11-17T04:30:35.438Z,3.5
2022-11-17T04:31:38.901Z,3.5
2022-11-17T04:32:41.770Z,3.5
2022-11-17T04:33:44.379Z,3.5
2022-11-17T04:34:46.548Z,3.5
2022-11-17T04:35:49.067Z,3.5
2022-11-17T04:36:52.219Z,3.5
2022-11-17T04:37:55.381Z,3.4
2022-11-17T04:38:58.657Z,3.4
2022-11-17T04:40:02.745Z,3.4
2022-11-17T04:41:05.865Z,3.4
2022-11-17T04:42:09.302Z,3.4
2022-11-17T04:43:12.174Z,3.4
2022-11-17T04:44:14.901Z,3.3
2022-11-17T04:45:17.338Z,3.3
2022-11-17T04:46:20.441Z,3.3
2022-11-17T04:47:23.522Z,3.3
2022-11-17T04:48:25.834Z,3.2
2022-11-17T04:49:29.199Z,3.2
2022-11-17T04:50:31.992Z,3.1
2022-11-17T04:51:35.145Z,3.2
2022-11-17T04:52:37.562Z,3.2
2022-11-17T04:53:40.635Z,3.1
2022-11-17T04:54:43.877Z,3.2
2022-11-17T04:55:47.993Z,3.2
2022-11-17T04:56:51.078Z,3.2
2022-11-17T04:57:53.522Z,3.2
2022-11-17T04:58:56.185Z,3.2
2022-11-17T04:59:59.470Z,3.1
2022-11-17T05:01:01.925Z,3.1
2022-11-17T05:02:08.300Z,3.1
2022-11-17T05:03:10.981Z,3.2
2022-11-17T05:04:14.141Z,3.1
2022-11-17T05:05:17.266Z,3.1
2022-11-17T05:06:19.969Z,3.1
2022-11-17T05:07:23.430Z,3.1
2022-11-17T05:08:26.493Z,3.1
2022-11-17T05:09:29.209Z,3.1
2022-11-17T05:10:31.696Z,3.1
2022-11-17T05:11:35.751Z,3
2022-11-17T05:12:39.245Z,3
2022-11-17T05:13:42.583Z,3
2022-11-17T05:14:45.656Z,3
2022-11-17T05:15:48.193Z,3
2022-11-17T05:16:51.061Z,3.1
2022-11-17T05:17:53.886Z,3.1
2022-11-17T05:18:56.684Z,3.1
2022-11-17T05:19:59.877Z,3
2022-11-17T05:21:03.058Z,3
2022-11-17T05:22:05.580Z,3.1
2022-11-17T05:23:08.822Z,3.1
2022-11-17T05:24:12.281Z,3.1
2022-11-17T05:25:15.406Z,3
2022-11-17T05:26:18.707Z,3.1
2022-11-17T05:27:23.146Z,3
2022-11-17T05:28:26.375Z,3.1
2022-11-17T05:29:30.092Z,3.1
2022-11-17T05:30:32.812Z,3.1
2022-11-17T05:31:36.239Z,3.1
2022-11-17T05:32:39.700Z,3.1
2022-11-17T05:33:45.150Z,3.2
2022-11-17T05:34:48.214Z,3.2
2022-11-17T05:35:50.451Z,3.2
2022-11-17T05:36:53.449Z,3.2
2022-11-17T05:37:56.163Z,3.2
2022-11-17T05:38:58.885Z,3.2
2022-11-17T05:40:01.961Z,3.2
2022-11-17T05:41:05.121Z,3.1
2022-11-17T05:42:09.065Z,3.2
2022-11-17T05:43:12.923Z,3.2
2022-11-17T05:44:16.710Z,3.1
2022-11-17T05:45:19.523Z,3.1
2022-11-17T05:46:22.436Z,3.1
2022-11-17T05:47:25.141Z,3.1
2022-11-17T05:48:27.571Z,3.1
2022-11-17T05:49:30.363Z,3.1
2022-11-17T05:50:33.880Z,3.2
2022-11-17T05:51:36.763Z,3.2
2022-11-17T05:52:39.551Z,3.1
2022-11-17T05:53:42.173Z,3.2
2022-11-17T05:54:45.531Z,3.1
2022-11-17T05:55:48.328Z,3.2
2022-11-17T05:56:51.394Z,3.1
2022-11-17T05:57:54.611Z,3.1
2022-11-17T05:58:58.567Z,3.2
2022-11-17T06:00:01.790Z,3.2
2022-11-17T06:01:04.289Z,3.2
2022-11-17T06:02:06.903Z,3.2
2022-11-17T06:03:09.408Z,3.2
2022-11-17T06:04:12.296Z,3.2
2022-11-17T06:05:21.926Z,3.2
2022-11-17T06:06:24.724Z,3.2
2022-11-17T06:07:28.501Z,3.2
2022-11-17T06:08:31.061Z,3.2
2022-11-17T06:09:34.218Z,3.2
2022-11-17T06:10:37.557Z,3.1
2022-11-17T06:11:40.731Z,3.1
2022-11-17T06:12:43.726Z,3.1
2022-11-17T06:13:46.652Z,3.1
2022-11-17T06:14:50.950Z,3
2022-11-17T06:15:54.422Z,3
2022-11-17T06:16:57.797Z,3
2022-11-17T06:18:00.322Z,3
2022-11-17T06:19:03.548Z,3
2022-11-17T06:20:06.158Z,3.1
2022-11-17T06:21:08.592Z,3.1
2022-11-17T06:22:15.377Z,3.1
2022-11-17T06:23:18.184Z,3.1
2022-11-17T06:24:21.045Z,3.1
2022-11-17T06:25:24.327Z,3.2
2022-11-17T06:26:27.404Z,3.2
2022-11-17T06:27:30.789Z,3.2
2022-11-17T06:28:33.968Z,3.3
2022-11-17T06:29:46.561Z,3.2
2022-11-17T06:30:50.716Z,3.2
2022-11-17T06:31:53.514Z,3.2
2022-11-17T06:32:56.598Z,3.2
2022-11-17T06:33:59.123Z,3.2
2022-11-17T06:35:02.559Z,3.2
2022-11-17T06:36:05.163Z,3.2
2022-11-17T06:37:08.230Z,3.2
2022-11-17T06:38:10.821Z,3.2
2022-11-17T06:39:13.922Z,3.2
2022-11-17T06:40:16.791Z,3.2
2022-11-17T06:41:19.659Z,3.2
2022-11-17T06:42:22.527Z,3.2
2022-11-17T06:43:25.247Z,3.3
2022-11-17T06:44:28.311Z,3.3
2022-11-17T06:45:30.967Z,3.3
2022-11-17T06:46:35.354Z,3.2
2022-11-17T06:47:38.769Z,3.3
2022-11-17T06:48:41.298Z,3.3
2022-11-17T06:49:44.293Z,3.2
2022-11-17T06:50:46.828Z,3.2
2022-11-17T06:51:49.999Z,3.2
2022-11-17T06:52:53.337Z,3.2
2022-11-17T06:53:56.443Z,3.2
2022-11-17T06:54:59.203Z,3.2
2022-11-17T06:56:01.764Z,3.2
2022-11-17T06:57:04.354Z,3.2
2022-11-17T06:58:08.057Z,3.1
2022-11-17T06:59:11.193Z,3.2
2022-11-17T07:00:14.594Z,3.2
2022-11-17T07:01:17.771Z,3.2
2022-11-17T07:02:21.581Z,3.2
2022-11-17T07:03:24.784Z,3.2
2022-11-17T07:04:27.214Z,3.2
2022-11-17T07:05:30.606Z,3.2
2022-11-17T07:06:34.316Z,3.2
2022-11-17T07:07:37.539Z,3.3
2022-11-17T07:08:40.123Z,3.3
2022-11-17T07:09:43.558Z,3.2
2022-11-17T07:10:50.925Z,3.3
2022-11-17T07:11:54.179Z,3.2
2022-11-17T07:12:56.957Z,3.2
2022-11-17T07:13:59.802Z,3.2
2022-11-17T07:15:03.309Z,3.2
2022-11-17T07:16:06.117Z,3.2
2022-11-17T07:17:09.976Z,3.2
2022-11-17T07:18:14.015Z,3.2
2022-11-17T07:19:16.572Z,3.3
2022-11-17T07:20:19.259Z,3.2
2022-11-17T07:21:21.968Z,3.2
2022-11-17T07:22:25.022Z,3.2
2022-11-17T07:23:27.913Z,3.2
2022-11-17T07:24:31.063Z,3.3
2022-11-17T07:25:33.845Z,3.3
2022-11-17T07:26:37.182Z,3.3
2022-11-17T07:27:40.513Z,3.3
2022-11-17T07:28:43.284Z,3.4
2022-11-17T07:29:46.609Z,3.4
2022-11-17T07:30:50.662Z,3.4
2022-11-17T07:31:52.852Z,3.4
2022-11-17T07:32:56.983Z,3.4
2022-11-17T07:34:00.832Z,3.5
2022-11-17T07:35:03.946Z,3.5
2022-11-17T07:36:07.694Z,3.5
2022-11-17T07:37:10.385Z,3.5
2022-11-17T07:38:13.014Z,3.5
2022-11-17T07:39:23.311Z,3.4
2022-11-17T07:40:26.651Z,3.4
2022-11-17T07:41:29.467Z,3.4
2022-11-17T07:42:32.240Z,3.4
2022-11-17T07:43:35.330Z,3.4
2022-11-17T07:44:38.321Z,3.4
2022-11-17T07:45:41.369Z,3.5
2022-11-17T07:46:45.077Z,3.5
2022-11-17T07:47:47.939Z,3.5
2022-11-17T07:48:51.772Z,3.5
2022-11-17T07:49:55.855Z,3.5
2022-11-17T07:50:59.416Z,3.5
2022-11-17T07:52:02.784Z,3.5
2022-11-17T07:53:05.318Z,3.5
2022-11-17T07:54:08.774Z,3.5
2022-11-17T07:55:11.489Z,3.5
2022-11-17T07:56:15.193Z,3.5
2022-11-17T07:57:18.252Z,3.5
2022-11-17T07:58:21.251Z,3.5
2022-11-17T07:59:24.302Z,3.6
2022-11-17T08:00:27.353Z,3.6
2022-11-17T08:01:31.533Z,3.6
2022-11-17T08:02:34.198Z,3.6
2022-11-17T08:03:37.434Z,3.6
2022-11-17T08:04:41.022Z,3.6
2022-11-17T08:05:45.837Z,3.5
2022-11-17T08:06:49.281Z,3.5
2022-11-17T08:07:52.378Z,3.6
2022-11-17T08:08:55.239Z,3.7
2022-11-17T08:09:58.920Z,3.7
2022-11-17T08:11:02.137Z,3.7
2022-11-17T08:12:05.402Z,3.7
2022-11-17T08:13:08.279Z,3.7
2022-11-17T08:14:11.360Z,3.8
2022-11-17T08:15:15.348Z,3.7
2022-11-17T08:16:18.465Z,3.8
2022-11-17T08:17:21.507Z,3.8
2022-11-17T08:18:24.876Z,3.8
2022-11-17T08:19:28.225Z,3.8
2022-11-17T08:20:31.866Z,3.8
2022-11-17T08:21:35.917Z,3.8
2022-11-17T08:22:39.159Z,3.8
2022-11-17T08:23:42.445Z,3.8
2022-11-17T08:24:45.054Z,3.8
2022-11-17T08:25:47.752Z,3.9
2022-11-17T08:26:50.902Z,3.8
2022-11-17T08:27:54.329Z,3.8
2022-11-17T08:29:00.633Z,3.8
2022-11-17T08:30:03.618Z,3.9
2022-11-17T08:31:07.308Z,3.9
2022-11-17T08:32:09.970Z,3.9
2022-11-17T08:33:13.041Z,3.9
2022-11-17T08:34:15.833Z,3.9
2022-11-17T08:35:18.622Z,3.9
2022-11-17T08:36:22.145Z,4
2022-11-17T08:37:26.469Z,3.9
2022-11-17T08:38:30.212Z,3.9
2022-11-17T08:39:33.188Z,3.9
2022-11-17T08:40:36.344Z,3.9
2022-11-17T08:41:40.022Z,3.9
2022-11-17T08:42:43.417Z,4
2022-11-17T08:43:45.926Z,4
2022-11-17T08:44:49.606Z,4
2022-11-17T08:45:52.592Z,4
2022-11-17T08:46:55.924Z,4
2022-11-17T08:47:58.796Z,4
2022-11-17T08:49:01.579Z,4
2022-11-17T08:50:04.468Z,4
2022-11-17T08:51:06.974Z,4
2022-11-17T08:52:11.088Z,4
2022-11-17T08:53:15.293Z,4
2022-11-17T08:54:18.762Z,4
2022-11-17T08:55:21.794Z,4
2022-11-17T08:56:25.301Z,4.1
2022-11-17T08:57:28.793Z,4.1
2022-11-17T08:58:31.838Z,4.1
2022-11-17T08:59:35.576Z,4.1
2022-11-17T09:00:38.928Z,4.2
2022-11-17T09:01:42.251Z,4.2
2022-11-17T09:02:45.388Z,4.2
2022-11-17T09:03:48.366Z,4.2
2022-11-17T09:04:51.136Z,4.1
2022-11-17T09:05:53.628Z,4.1
2022-11-17T09:06:56.685Z,4.2
2022-11-17T09:08:48.676Z,4.2
2022-11-17T09:09:53.560Z,4.2
2022-11-17T09:10:56.883Z,4.1
2022-11-17T09:11:59.864Z,4.2
2022-11-17T09:13:03.283Z,4.1
2022-11-17T09:14:06.330Z,4.1
2022-11-17T09:15:09.125Z,4.1
2022-11-17T09:16:12.470Z,4.1
2022-11-17T09:17:15.311Z,4.2
2022-11-17T09:18:17.743Z,4.2
2022-11-17T09:19:21.489Z,4.2
2022-11-17T09:20:24.289Z,4.2
2022-11-17T09:21:27.351Z,4.2
2022-11-17T09:22:30.505Z,4.2
2022-11-17T09:23:35.016Z,4.2
2022-11-17T09:24:38.531Z,4.2
2022-11-17T09:25:42.982Z,4.2
2022-11-17T09:26:46.352Z,4.2
2022-11-17T09:27:49.137Z,4.2
2022-11-17T09:28:53.126Z,4.2
2022-11-17T09:29:56.346Z,4.2
2022-11-17T09:31:03.079Z,4.2
2022-11-17T09:32:06.299Z,4.2
2022-11-17T09:33:09.091Z,4.2
2022-11-17T09:34:12.281Z,4.2
2022-11-17T09:35:15.516Z,4.1
2022-11-17T09:36:18.555Z,4.1
2022-11-17T09:37:21.118Z,4.1
2022-11-17T09:38:24.872Z,4.1
2022-11-17T09:39:28.907Z,4.1
2022-11-17T09:40:39.904Z,4.1
2022-11-17T09:41:44.323Z,4.1
2022-11-17T09:42:47.451Z,4.1
2022-11-17T09:43:50.505Z,4.1
2022-11-17T09:44:53.771Z,4.1
2022-11-17T09:45:56.321Z,4.1
2022-11-17T09:46:59.968Z,4.1
2022-11-17T09:48:43.230Z,4.1
2022-11-17T09:49:46.975Z,4
2022-11-17T09:50:49.762Z,4.1
2022-11-17T09:51:53.476Z,4.1
2022-11-17T09:52:56.805Z,4
2022-11-17T09:53:59.518Z,4
2022-11-17T09:55:02.528Z,4
2022-11-17T09:56:06.031Z,4.1
2022-11-17T09:57:10.511Z,4.1
2022-11-17T09:58:13.634Z,4.1
2022-11-17T09:59:16.243Z,4.1
2022-11-17T10:00:20.066Z,4.1
2022-11-17T10:01:23.514Z,4.1
2022-11-17T10:02:26.754Z,4.1
2022-11-17T10:03:30.529Z,4.1
2022-11-17T10:04:33.884Z,4.1
2022-11-17T10:05:37.307Z,4
2022-11-17T10:06:40.718Z,4.1
2022-11-17T10:07:43.507Z,4.1
2022-11-17T10:08:46.945Z,4.1
2022-11-17T10:09:50.459Z,4.1
2022-11-17T10:10:53.427Z,4.1
2022-11-17T10:11:56.186Z,4.1
2022-11-17T10:13:00.694Z,4.1
2022-11-17T10:14:04.048Z,4.1
2022-11-17T10:15:07.205Z,4.1
2022-11-17T10:16:10.019Z,4.1
2022-11-17T10:17:13.074Z,4.1
2022-11-17T10:18:16.138Z,4.1
2022-11-17T10:19:19.599Z,4.1
2022-11-17T10:20:22.321Z,4.1
2022-11-17T10:21:25.720Z,4.1
2022-11-17T10:22:29.043Z,4.1
2022-11-17T10:23:32.563Z,4.1
2022-11-17T10:24:36.584Z,4.1
2022-11-17T10:25:39.843Z,4.1
2022-11-17T10:26:43.577Z,4.1
2022-11-17T10:27:46.698Z,4.1
2022-11-17T10:28:51.079Z,4.1
2022-11-17T10:29:53.503Z,4.1
2022-11-17T10:30:56.931Z,4.2
2022-11-17T10:32:00.074Z,4.2
2022-11-17T10:33:03.293Z,4.2
2022-11-17T10:34:06.721Z,4.2
2022-11-17T10:35:09.934Z,4.2
2022-11-17T10:36:13.371Z,4.2
2022-11-17T10:37:16.837Z,4.2
2022-11-17T10:38:20.791Z,4.2
2022-11-17T10:39:24.074Z,4.2
2022-11-17T10:40:28.449Z,4.2
2022-11-17T10:41:31.609Z,4.2
2022-11-17T10:42:34.696Z,4.2
2022-11-17T10:43:39.337Z,4.2
2022-11-17T10:44:43.181Z,4.2
2022-11-17T10:45:46.682Z,4.1
2022-11-17T10:46:52.320Z,4
2022-11-17T10:48:03.188Z,4.1
2022-11-17T10:49:06.604Z,4.1
2022-11-17T10:50:09.109Z,4.1
2022-11-17T10:51:11.336Z,4.1
2022-11-17T10:52:13.838Z,4.1
2022-11-17T10:53:16.967Z,4.1
2022-11-17T10:54:19.940Z,4.1
2022-11-17T10:55:23.286Z,4.1
2022-11-17T10:56:26.131Z,4.1
2022-11-17T10:57:29.305Z,4
2022-11-17T10:58:32.739Z,4
2022-11-17T10:59:36.350Z,4
2022-11-17T11:00:40.539Z,4
2022-11-17T11:01:44.153Z,4
2022-11-17T11:02:47.393Z,4
2022-11-17T11:03:50.433Z,4
2022-11-17T11:04:53.463Z,4.1
2022-11-17T11:05:56.581Z,4.1
2022-11-17T11:06:59.753Z,4
2022-11-17T11:08:03.264Z,4
2022-11-17T11:09:06.239Z,4
2022-11-17T11:10:09.652Z,4
2022-11-17T11:11:12.354Z,4
2022-11-17T11:12:15.136Z,4
2022-11-17T11:13:19.132Z,4
2022-11-17T11:14:22.462Z,4.1
2022-11-17T11:15:25.910Z,4.1
2022-11-17T11:16:30.052Z,4.1
2022-11-17T11:17:32.269Z,4.1
2022-11-17T11:18:35.536Z,4
2022-11-17T11:19:38.228Z,3.9
2022-11-17T11:20:40.939Z,4
2022-11-17T11:21:44.193Z,3.9
2022-11-17T11:22:46.902Z,4
2022-11-17T11:23:49.950Z,3.9
2022-11-17T11:24:52.727Z,4
2022-11-17T11:25:56.171Z,4
2022-11-17T11:26:59.856Z,3.9
2022-11-17T11:28:02.632Z,4
2022-11-17T11:29:05.840Z,4
2022-11-17T11:30:09.102Z,4
2022-11-17T11:31:12.227Z,4
2022-11-17T11:32:16.132Z,4
2022-11-17T11:33:19.398Z,4
2022-11-17T11:34:22.811Z,4
2022-11-17T11:35:25.591Z,4
2022-11-17T11:36:28.415Z,4.1
2022-11-17T11:37:32.098Z,4.1
2022-11-17T11:38:35.505Z,4.1
2022-11-17T11:39:38.884Z,4.1
2022-11-17T11:40:41.935Z,4.1
2022-11-17T11:41:44.704Z,4.1
2022-11-17T11:42:47.838Z,4.1
2022-11-17T11:43:50.552Z,4.1
2022-11-17T11:44:53.650Z,4
2022-11-17T11:45:56.784Z,4.1
2022-11-17T11:47:00.300Z,4.1
2022-11-17T11:48:04.218Z,4
2022-11-17T11:49:07.074Z,4.1
2022-11-17T11:50:10.435Z,4.1
2022-11-17T11:51:14.040Z,4.1
2022-11-17T11:52:17.092Z,4.1
2022-11-17T11:53:20.139Z,4.1
2022-11-17T11:54:23.585Z,4.1
2022-11-17T11:55:26.931Z,4.2
2022-11-17T11:56:29.714Z,4.1
2022-11-17T11:57:33.040Z,4.1
2022-11-17T11:58:36.434Z,4.1
2022-11-17T11:59:39.291Z,4.1
2022-11-17T12:00:42.526Z,4.1
2022-11-17T12:01:45.955Z,4.1
2022-11-17T12:02:49.160Z,4.2
2022-11-17T12:03:53.815Z,4.1
2022-11-17T12:04:57.143Z,4.1
2022-11-17T12:06:00.209Z,4.1
2022-11-17T12:07:03.477Z,4.1
2022-11-17T12:08:12.593Z,4.1
2022-11-17T12:09:15.176Z,4.1
2022-11-17T12:10:18.543Z,4.2
2022-11-17T12:11:20.752Z,4.2
2022-11-17T12:12:23.256Z,4.2
2022-11-17T12:13:26.239Z,4.2
2022-11-17T12:14:29.914Z,4.2
2022-11-17T12:15:32.978Z,4.2
2022-11-17T12:16:36.699Z,4.2
2022-11-17T12:17:39.383Z,4.2
2022-11-17T12:18:43.121Z,4.3
2022-11-17T12:19:47.307Z,4.3
2022-11-17T12:20:50.736Z,4.3
2022-11-17T12:21:53.833Z,4.3
2022-11-17T12:22:56.811Z,4.3
2022-11-17T12:24:00.136Z,4.2
2022-11-17T12:25:03.189Z,4.2
2022-11-17T12:26:06.622Z,4.2
2022-11-17T12:27:10.048Z,4.2
2022-11-17T12:28:12.626Z,4.2
2022-11-17T12:29:16.065Z,4.2
2022-11-17T12:30:19.482Z,4.3
2022-11-17T12:31:22.408Z,4.3
2022-11-17T12:32:25.797Z,4.3
2022-11-17T12:33:29.402Z,4.3
2022-11-17T12:34:33.174Z,4.3
2022-11-17T12:35:37.310Z,4.3
2022-11-17T12:36:40.288Z,4.2
2022-11-17T12:37:43.265Z,4.2
2022-11-17T12:38:46.038Z,4.2
2022-11-17T12:39:48.886Z,4.2
2022-11-17T12:40:52.026Z,4.2
2022-11-17T12:41:56.517Z,4.2
2022-11-17T12:42:59.862Z,4.2
2022-11-17T12:44:02.839Z,4.2
2022-11-17T12:45:06.086Z,4.2
2022-11-17T12:46:09.142Z,4.2
2022-11-17T12:47:12.202Z,4.2
2022-11-17T12:48:37.262Z,4.2
2022-11-17T12:49:41.407Z,4.2
2022-11-17T12:50:45.641Z,4.2
2022-11-17T12:51:49.349Z,4.2
2022-11-17T12:52:53.054Z,4.2
2022-11-17T12:53:56.413Z,4.3
2022-11-17T12:54:59.445Z,4.3
2022-11-17T12:56:01.966Z,4.3
2022-11-17T12:57:05.006Z,4.3
2022-11-17T12:58:12.559Z,4.3
2022-11-17T12:59:16.270Z,4.3
2022-11-17T13:00:20.016Z,4.3
2022-11-17T13:01:23.212Z,4.2
2022-11-17T13:02:26.246Z,4.2
2022-11-17T13:03:29.297Z,4.2
2022-11-17T13:04:32.350Z,4.2
2022-11-17T13:05:35.865Z,4.3
2022-11-17T13:06:40.206Z,4.2
2022-11-17T13:07:43.099Z,4.2
2022-11-17T13:08:45.667Z,4.2
2022-11-17T13:09:48.540Z,4.2
2022-11-17T13:10:51.309Z,4.2
2022-11-17T13:11:54.741Z,4.3
2022-11-17T13:12:57.660Z,4.2
2022-11-17T13:14:01.357Z,4.2
2022-11-17T13:15:04.936Z,4.2
2022-11-17T13:16:08.505Z,4.2
2022-11-17T13:17:10.794Z,4.2
2022-11-17T13:18:14.205Z,4.2
2022-11-17T13:19:17.267Z,4.3
2022-11-17T13:20:20.334Z,4.2
2022-11-17T13:21:23.083Z,4.3
2022-11-17T13:22:26.984Z,4.3
2022-11-17T13:23:30.031Z,4.2
2022-11-17T13:24:32.822Z,4.2
2022-11-17T13:25:35.095Z,4.2
2022-11-17T13:26:38.656Z,4.2
2022-11-17T13:27:40.616Z,4.2
2022-11-17T13:28:44.340Z,4.2
2022-11-17T13:29:47.068Z,4.2
2022-11-17T13:30:50.399Z,4.3
2022-11-17T13:31:53.795Z,4.3
2022-11-17T13:32:57.001Z,4.3
2022-11-17T13:34:00.334Z,4.3
2022-11-17T13:35:03.435Z,4.3
2022-11-17T13:36:07.520Z,4.3
2022-11-17T13:37:10.660Z,4.4
2022-11-17T13:38:14.797Z,4.3
2022-11-17T13:39:28.279Z,4.3
2022-11-17T13:40:31.456Z,4.3
2022-11-17T13:41:33.751Z,4.2
2022-11-17T13:42:36.556Z,4.2
2022-11-17T13:43:40.038Z,4.2
2022-11-17T13:44:43.427Z,4.2
2022-11-17T13:45:45.726Z,4.3
2022-11-17T13:46:49.431Z,4.3
2022-11-17T13:47:52.411Z,4.3
2022-11-17T13:48:55.483Z,4.3
2022-11-17T13:49:58.277Z,4.3
2022-11-17T13:51:01.362Z,4.3
2022-11-17T13:52:04.654Z,4.3
2022-11-17T13:53:08.507Z,4.2
2022-11-17T13:54:14.613Z,4.2
2022-11-17T13:55:19.242Z,4.2
2022-11-17T13:56:21.163Z,4.2
2022-11-17T13:57:24.510Z,4.2
2022-11-17T13:58:28.758Z,4.2
2022-11-17T13:59:31.699Z,4.3
2022-11-17T14:00:35.266Z,4.2
2022-11-17T14:01:38.039Z,4.2
2022-11-17T14:02:41.216Z,4.2
2022-11-17T14:03:44.649Z,4.2
2022-11-17T14:04:48.051Z,4.2
2022-11-17T14:05:51.107Z,4.2
2022-11-17T14:06:54.191Z,4.2
2022-11-17T14:07:58.090Z,4.2
2022-11-17T14:09:01.299Z,4.2
2022-11-17T14:10:13.920Z,4.2
2022-11-17T14:11:17.304Z,4.2
2022-11-17T14:12:20.403Z,4.2
2022-11-17T14:13:23.172Z,4.2
2022-11-17T14:14:25.683Z,4.3
2022-11-17T14:15:28.089Z,4.2
2022-11-17T14:16:31.929Z,4.2
2022-11-17T14:17:34.759Z,4.3
2022-11-17T14:18:37.900Z,4.3
2022-11-17T14:19:40.709Z,4.3
2022-11-17T14:20:43.836Z,4.2
2022-11-17T14:21:46.993Z,4.2
2022-11-17T14:22:49.782Z,4.2
2022-11-17T14:23:53.401Z,4.2
2022-11-17T14:24:56.634Z,4.3
2022-11-17T14:26:00.614Z,4.2
2022-11-17T14:27:04.016Z,4.2
2022-11-17T14:28:06.245Z,4.2
2022-11-17T14:29:08.941Z,4.3
2022-11-17T14:30:11.171Z,4.2
2022-11-17T14:31:14.597Z,4.2
2022-11-17T14:32:17.834Z,4.3
2022-11-17T14:33:20.991Z,4.3
2022-11-17T14:34:24.111Z,4.3
2022-11-17T14:35:27.826Z,4.3
2022-11-17T14:36:30.802Z,4.2
2022-11-17T14:37:33.885Z,4.3
2022-11-17T14:38:37.217Z,4.2
2022-11-17T14:39:40.370Z,4.3
2022-11-17T14:40:43.797Z,4.3
2022-11-17T14:41:48.056Z,4.2